sensor_id;sensor_type;location;lat;lon;timestamp;P1;durP1;ratioP1;P2;durP2;ratioP2
41897;SDS011;27576;53.366;-1.498;2023-02-28T00:00:20;8.65;;;7.75;;
41897;SDS011;27576;53.366;-1.498;2023-02-28T00:02:46;8.68;;;7.80;;
41897;SDS011;27576;53.366;-1.498;2023-02-28T00:05:12;10.32;;;8.23;;
41897;SDS011;27576;53.366;-1.498;2023-02-28T00:07:40;9.48;;;7.68;;
41897;SDS011;27576;53.366;-1.498;2023-02-28T00:10:06;9.18;;;7.40;;
41897;SDS011;27576;53.366;-1.498;2023-02-28T00:12:34;7.07;;;6.38;;
41897;SDS011;27576;53.366;-1.498;2023-02-28T00:15:00;7.47;;;6.45;;
41897;SDS011;27576;53.366;-1.498;2023-02-28T00:17:26;6.53;;;5.80;;
41897;SDS011;27576;53.366;-1.498;2023-02-28T00:19:52;8.15;;;6.25;;
41897;SDS011;27576;53.366;-1.498;2023-02-28T00:22:18;7.95;;;6.28;;
41897;SDS011;27576;53.366;-1.498;2023-02-28T00:24:45;9.18;;;6.68;;
41897;SDS011;27576;53.366;-1.498;2023-02-28T00:27:10;8.55;;;7.35;;
41897;SDS011;27576;53.366;-1.498;2023-02-28T00:29:36;8.77;;;7.55;;
41897;SDS011;27576;53.366;-1.498;2023-02-28T00:32:02;9.77;;;8.40;;
41897;SDS011;27576;53.366;-1.498;2023-02-28T00:34:27;11.70;;;10.40;;
41897;SDS011;27576;53.366;-1.498;2023-02-28T00:36:53;11.48;;;9.85;;
41897;SDS011;27576;53.366;-1.498;2023-02-28T00:39:19;14.32;;;12.18;;
41897;SDS011;27576;53.366;-1.498;2023-02-28T00:41:44;17.25;;;11.95;;
41897;SDS011;27576;53.366;-1.498;2023-02-28T00:44:10;15.52;;;13.25;;
41897;SDS011;27576;53.366;-1.498;2023-02-28T00:46:36;20.48;;;15.35;;
41897;SDS011;27576;53.366;-1.498;2023-02-28T00:49:01;24.35;;;17.23;;
41897;SDS011;27576;53.366;-1.498;2023-02-28T00:51:26;22.98;;;17.92;;
41897;SDS011;27576;53.366;-1.498;2023-02-28T00:53:52;21.02;;;17.08;;
41897;SDS011;27576;53.366;-1.498;2023-02-28T00:56:17;23.00;;;17.55;;
41897;SDS011;27576;53.366;-1.498;2023-02-28T00:58:42;21.60;;;17.05;;
41897;SDS011;27576;53.366;-1.498;2023-02-28T01:01:08;21.17;;;17.63;;
41897;SDS011;27576;53.366;-1.498;2023-02-28T01:03:33;23.30;;;17.20;;
41897;SDS011;27576;53.366;-1.498;2023-02-28T01:05:59;27.45;;;18.45;;
41897;SDS011;27576;53.366;-1.498;2023-02-28T01:08:24;19.90;;;15.00;;
41897;SDS011;27576;53.366;-1.498;2023-02-28T01:10:51;18.48;;;15.15;;
41897;SDS011;27576;53.366;-1.498;2023-02-28T01:13:16;20.17;;;14.55;;
41897;SDS011;27576;53.366;-1.498;2023-02-28T01:15:46;17.27;;;13.45;;
41897;SDS011;27576;53.366;-1.498;2023-02-28T01:18:16;17.25;;;12.23;;
41897;SDS011;27576;53.366;-1.498;2023-02-28T01:20:41;15.07;;;11.15;;
41897;SDS011;27576;53.366;-1.498;2023-02-28T01:23:07;14.48;;;10.45;;
41897;SDS011;27576;53.366;-1.498;2023-02-28T01:25:33;12.50;;;9.77;;
41897;SDS011;27576;53.366;-1.498;2023-02-28T01:28:01;12.98;;;8.32;;
41897;SDS011;27576;53.366;-1.498;2023-02-28T01:30:26;9.63;;;8.18;;
41897;SDS011;27576;53.366;-1.498;2023-02-28T01:32:52;11.65;;;9.70;;
41897;SDS011;27576;53.366;-1.498;2023-02-28T01:35:18;10.63;;;8.90;;
41897;SDS011;27576;53.366;-1.498;2023-02-28T01:37:44;10.63;;;8.63;;
41897;SDS011;27576;53.366;-1.498;2023-02-28T01:40:09;12.70;;;9.43;;
41897;SDS011;27576;53.366;-1.498;2023-02-28T01:42:35;9.43;;;8.40;;
41897;SDS011;27576;53.366;-1.498;2023-02-28T01:48:05;7.78;;;6.97;;
41897;SDS011;27576;53.366;-1.498;2023-02-28T01:50:37;8.70;;;7.40;;
41897;SDS011;27576;53.366;-1.498;2023-02-28T01:53:06;8.27;;;6.20;;
41897;SDS011;27576;53.366;-1.498;2023-02-28T01:55:36;11.13;;;7.05;;
41897;SDS011;27576;53.366;-1.498;2023-02-28T01:58:04;8.73;;;6.20;;
41897;SDS011;27576;53.366;-1.498;2023-02-28T02:00:31;7.53;;;6.13;;
41897;SDS011;27576;53.366;-1.498;2023-02-28T02:02:58;7.70;;;6.10;;
41897;SDS011;27576;53.366;-1.498;2023-02-28T02:05:30;12.32;;;7.00;;
41897;SDS011;27576;53.366;-1.498;2023-02-28T02:08:03;9.27;;;6.70;;
41897;SDS011;27576;53.366;-1.498;2023-02-28T02:10:33;8.77;;;6.70;;
41897;SDS011;27576;53.366;-1.498;2023-02-28T02:15:43;7.60;;;5.82;;
41897;SDS011;27576;53.366;-1.498;2023-02-28T02:18:29;7.80;;;4.82;;
41897;SDS011;27576;53.366;-1.498;2023-02-28T02:21:25;7.93;;;4.88;;
41897;SDS011;27576;53.366;-1.498;2023-02-28T02:40:39;8.85;;;6.47;;
41897;SDS011;27576;53.366;-1.498;2023-02-28T02:46:35;9.60;;;7.25;;
41897;SDS011;27576;53.366;-1.498;2023-02-28T02:49:06;12.68;;;9.27;;
41897;SDS011;27576;53.366;-1.498;2023-02-28T02:51:35;15.95;;;12.35;;
41897;SDS011;27576;53.366;-1.498;2023-02-28T02:54:22;14.52;;;11.73;;
41897;SDS011;27576;53.366;-1.498;2023-02-28T02:56:53;14.88;;;11.82;;
41897;SDS011;27576;53.366;-1.498;2023-02-28T02:59:21;15.13;;;13.20;;
41897;SDS011;27576;53.366;-1.498;2023-02-28T03:01:49;16.88;;;12.75;;
41897;SDS011;27576;53.366;-1.498;2023-02-28T03:04:20;15.50;;;12.45;;
41897;SDS011;27576;53.366;-1.498;2023-02-28T03:06:48;15.73;;;12.77;;
41897;SDS011;27576;53.366;-1.498;2023-02-28T03:09:19;15.27;;;10.35;;
41897;SDS011;27576;53.366;-1.498;2023-02-28T03:11:48;13.45;;;10.77;;
41897;SDS011;27576;53.366;-1.498;2023-02-28T03:17:16;12.57;;;9.40;;
41897;SDS011;27576;53.366;-1.498;2023-02-28T03:28:00;10.30;;;8.35;;
41897;SDS011;27576;53.366;-1.498;2023-02-28T03:33:12;11.32;;;9.25;;
41897;SDS011;27576;53.366;-1.498;2023-02-28T03:41:38;8.93;;;7.32;;
41897;SDS011;27576;53.366;-1.498;2023-02-28T03:44:06;8.75;;;6.30;;
41897;SDS011;27576;53.366;-1.498;2023-02-28T03:46:41;9.32;;;6.65;;
41897;SDS011;27576;53.366;-1.498;2023-02-28T03:49:13;7.07;;;6.38;;
41897;SDS011;27576;53.366;-1.498;2023-02-28T03:51:43;7.57;;;6.78;;
41897;SDS011;27576;53.366;-1.498;2023-02-28T03:54:12;6.15;;;5.65;;
41897;SDS011;27576;53.366;-1.498;2023-02-28T03:56:45;7.22;;;6.28;;
41897;SDS011;27576;53.366;-1.498;2023-02-28T03:59:32;8.20;;;6.20;;
41897;SDS011;27576;53.366;-1.498;2023-02-28T04:02:01;6.75;;;5.95;;
41897;SDS011;27576;53.366;-1.498;2023-02-28T04:04:27;7.25;;;6.47;;
41897;SDS011;27576;53.366;-1.498;2023-02-28T04:06:53;11.18;;;8.30;;
41897;SDS011;27576;53.366;-1.498;2023-02-28T04:09:26;12.52;;;10.20;;
41897;SDS011;27576;53.366;-1.498;2023-02-28T04:11:52;15.63;;;11.13;;
41897;SDS011;27576;53.366;-1.498;2023-02-28T04:14:18;14.30;;;11.85;;
41897;SDS011;27576;53.366;-1.498;2023-02-28T04:16:44;15.95;;;13.52;;
41897;SDS011;27576;53.366;-1.498;2023-02-28T04:19:10;17.67;;;13.93;;
41897;SDS011;27576;53.366;-1.498;2023-02-28T04:21:38;18.58;;;14.75;;
41897;SDS011;27576;53.366;-1.498;2023-02-28T04:24:05;19.15;;;15.75;;
41897;SDS011;27576;53.366;-1.498;2023-02-28T04:26:35;21.45;;;16.42;;
41897;SDS011;27576;53.366;-1.498;2023-02-28T04:29:02;22.73;;;17.38;;
41897;SDS011;27576;53.366;-1.498;2023-02-28T04:31:29;22.92;;;17.00;;
41897;SDS011;27576;53.366;-1.498;2023-02-28T04:33:54;25.13;;;17.58;;
41897;SDS011;27576;53.366;-1.498;2023-02-28T04:36:19;27.27;;;17.80;;
41897;SDS011;27576;53.366;-1.498;2023-02-28T04:38:45;26.27;;;18.10;;
41897;SDS011;27576;53.366;-1.498;2023-02-28T04:41:14;20.90;;;16.35;;
41897;SDS011;27576;53.366;-1.498;2023-02-28T04:43:40;19.80;;;14.23;;
41897;SDS011;27576;53.366;-1.498;2023-02-28T04:46:05;18.80;;;13.85;;
41897;SDS011;27576;53.366;-1.498;2023-02-28T04:48:32;20.10;;;13.90;;
41897;SDS011;27576;53.366;-1.498;2023-02-28T04:51:00;20.40;;;14.65;;
41897;SDS011;27576;53.366;-1.498;2023-02-28T04:53:35;18.98;;;13.75;;
41897;SDS011;27576;53.366;-1.498;2023-02-28T04:56:02;16.60;;;12.38;;
41897;SDS011;27576;53.366;-1.498;2023-02-28T04:58:28;17.90;;;12.38;;
41897;SDS011;27576;53.366;-1.498;2023-02-28T05:00:55;18.20;;;13.18;;
41897;SDS011;27576;53.366;-1.498;2023-02-28T05:03:27;19.42;;;14.13;;
41897;SDS011;27576;53.366;-1.498;2023-02-28T05:05:53;16.88;;;13.10;;
41897;SDS011;27576;53.366;-1.498;2023-02-28T05:08:18;20.67;;;13.95;;
41897;SDS011;27576;53.366;-1.498;2023-02-28T05:10:43;18.75;;;14.00;;
41897;SDS011;27576;53.366;-1.498;2023-02-28T05:13:11;21.85;;;14.65;;
41897;SDS011;27576;53.366;-1.498;2023-02-28T05:15:37;20.45;;;14.27;;
41897;SDS011;27576;53.366;-1.498;2023-02-28T05:18:03;24.35;;;15.73;;
41897;SDS011;27576;53.366;-1.498;2023-02-28T05:20:28;20.88;;;14.70;;
41897;SDS011;27576;53.366;-1.498;2023-02-28T05:22:54;19.88;;;13.27;;
41897;SDS011;27576;53.366;-1.498;2023-02-28T05:25:20;17.55;;;12.20;;
41897;SDS011;27576;53.366;-1.498;2023-02-28T05:27:47;18.63;;;12.20;;
41897;SDS011;27576;53.366;-1.498;2023-02-28T05:30:13;16.92;;;11.23;;
41897;SDS011;27576;53.366;-1.498;2023-02-28T05:32:39;16.70;;;12.05;;
41897;SDS011;27576;53.366;-1.498;2023-02-28T05:35:09;15.13;;;10.93;;
41897;SDS011;27576;53.366;-1.498;2023-02-28T05:37:36;15.50;;;10.65;;
41897;SDS011;27576;53.366;-1.498;2023-02-28T05:40:02;15.90;;;10.57;;
41897;SDS011;27576;53.366;-1.498;2023-02-28T05:42:31;14.50;;;10.70;;
41897;SDS011;27576;53.366;-1.498;2023-02-28T05:44:56;17.10;;;11.02;;
41897;SDS011;27576;53.366;-1.498;2023-02-28T05:47:22;15.32;;;10.90;;
41897;SDS011;27576;53.366;-1.498;2023-02-28T05:49:47;15.30;;;11.25;;
41897;SDS011;27576;53.366;-1.498;2023-02-28T05:52:12;15.15;;;10.48;;
41897;SDS011;27576;53.366;-1.498;2023-02-28T05:54:38;16.88;;;11.00;;
41897;SDS011;27576;53.366;-1.498;2023-02-28T05:57:03;15.77;;;11.55;;
41897;SDS011;27576;53.366;-1.498;2023-02-28T05:59:28;16.48;;;10.88;;
41897;SDS011;27576;53.366;-1.498;2023-02-28T06:01:54;16.45;;;11.13;;
41897;SDS011;27576;53.366;-1.498;2023-02-28T06:04:19;18.58;;;11.50;;
41897;SDS011;27576;53.366;-1.498;2023-02-28T06:06:46;17.80;;;11.73;;
41897;SDS011;27576;53.366;-1.498;2023-02-28T06:09:12;16.45;;;11.13;;
41897;SDS011;27576;53.366;-1.498;2023-02-28T06:11:38;17.42;;;11.18;;
41897;SDS011;27576;53.366;-1.498;2023-02-28T06:14:03;19.13;;;11.57;;
41897;SDS011;27576;53.366;-1.498;2023-02-28T06:16:30;16.17;;;10.48;;
41897;SDS011;27576;53.366;-1.498;2023-02-28T06:18:57;15.88;;;10.30;;
41897;SDS011;27576;53.366;-1.498;2023-02-28T06:21:23;17.30;;;10.73;;
41897;SDS011;27576;53.366;-1.498;2023-02-28T06:23:49;18.85;;;11.30;;
41897;SDS011;27576;53.366;-1.498;2023-02-28T06:26:14;18.27;;;10.98;;
41897;SDS011;27576;53.366;-1.498;2023-02-28T06:28:40;17.30;;;11.25;;
41897;SDS011;27576;53.366;-1.498;2023-02-28T06:31:09;19.10;;;11.02;;
41897;SDS011;27576;53.366;-1.498;2023-02-28T06:33:37;16.77;;;11.38;;
41897;SDS011;27576;53.366;-1.498;2023-02-28T06:36:03;18.50;;;10.95;;
41897;SDS011;27576;53.366;-1.498;2023-02-28T06:38:30;17.17;;;10.75;;
41897;SDS011;27576;53.366;-1.498;2023-02-28T06:40:56;17.70;;;10.95;;
41897;SDS011;27576;53.366;-1.498;2023-02-28T06:43:23;15.90;;;10.45;;
41897;SDS011;27576;53.366;-1.498;2023-02-28T06:45:50;18.70;;;10.93;;
41897;SDS011;27576;53.366;-1.498;2023-02-28T06:48:15;15.93;;;10.80;;
41897;SDS011;27576;53.366;-1.498;2023-02-28T06:50:41;16.67;;;11.02;;
41897;SDS011;27576;53.366;-1.498;2023-02-28T06:53:07;17.48;;;10.40;;
41897;SDS011;27576;53.366;-1.498;2023-02-28T06:55:32;17.77;;;11.57;;
41897;SDS011;27576;53.366;-1.498;2023-02-28T06:57:58;18.10;;;11.43;;
41897;SDS011;27576;53.366;-1.498;2023-02-28T07:00:24;23.45;;;12.88;;
41897;SDS011;27576;53.366;-1.498;2023-02-28T07:02:50;16.50;;;10.32;;
41897;SDS011;27576;53.366;-1.498;2023-02-28T07:05:16;20.58;;;11.85;;
41897;SDS011;27576;53.366;-1.498;2023-02-28T07:07:41;19.33;;;11.45;;
41897;SDS011;27576;53.366;-1.498;2023-02-28T07:10:10;18.70;;;10.48;;
41897;SDS011;27576;53.366;-1.498;2023-02-28T07:12:36;13.68;;;9.93;;
41897;SDS011;27576;53.366;-1.498;2023-02-28T07:15:02;13.27;;;9.15;;
41897;SDS011;27576;53.366;-1.498;2023-02-28T07:17:31;15.93;;;10.15;;
41897;SDS011;27576;53.366;-1.498;2023-02-28T07:19:57;13.38;;;8.65;;
41897;SDS011;27576;53.366;-1.498;2023-02-28T07:22:22;12.45;;;8.57;;
41897;SDS011;27576;53.366;-1.498;2023-02-28T07:24:47;11.40;;;7.90;;
41897;SDS011;27576;53.366;-1.498;2023-02-28T07:27:13;13.57;;;8.35;;
41897;SDS011;27576;53.366;-1.498;2023-02-28T07:29:48;14.85;;;9.27;;
41897;SDS011;27576;53.366;-1.498;2023-02-28T07:32:14;10.93;;;7.80;;
41897;SDS011;27576;53.366;-1.498;2023-02-28T07:34:39;13.65;;;8.02;;
41897;SDS011;27576;53.366;-1.498;2023-02-28T07:37:05;11.50;;;8.15;;
41897;SDS011;27576;53.366;-1.498;2023-02-28T07:39:30;10.95;;;7.80;;
41897;SDS011;27576;53.366;-1.498;2023-02-28T07:41:55;14.45;;;7.53;;
41897;SDS011;27576;53.366;-1.498;2023-02-28T07:44:21;13.18;;;7.63;;
41897;SDS011;27576;53.366;-1.498;2023-02-28T07:46:46;12.32;;;6.50;;
41897;SDS011;27576;53.366;-1.498;2023-02-28T07:49:12;9.85;;;6.35;;
41897;SDS011;27576;53.366;-1.498;2023-02-28T07:51:37;9.48;;;5.97;;
41897;SDS011;27576;53.366;-1.498;2023-02-28T07:54:03;9.57;;;6.50;;
41897;SDS011;27576;53.366;-1.498;2023-02-28T07:56:28;11.98;;;7.53;;
41897;SDS011;27576;53.366;-1.498;2023-02-28T07:58:53;13.10;;;7.82;;
41897;SDS011;27576;53.366;-1.498;2023-02-28T08:01:19;10.75;;;5.85;;
41897;SDS011;27576;53.366;-1.498;2023-02-28T08:03:44;12.15;;;6.88;;
41897;SDS011;27576;53.366;-1.498;2023-02-28T08:06:15;16.98;;;6.25;;
41897;SDS011;27576;53.366;-1.498;2023-02-28T08:08:42;9.43;;;6.97;;
41897;SDS011;27576;53.366;-1.498;2023-02-28T08:11:07;9.70;;;6.95;;
41897;SDS011;27576;53.366;-1.498;2023-02-28T08:13:32;11.57;;;6.47;;
41897;SDS011;27576;53.366;-1.498;2023-02-28T08:15:58;8.15;;;6.22;;
41897;SDS011;27576;53.366;-1.498;2023-02-28T08:18:26;9.75;;;6.07;;
41897;SDS011;27576;53.366;-1.498;2023-02-28T08:20:51;12.13;;;6.50;;
41897;SDS011;27576;53.366;-1.498;2023-02-28T08:23:16;12.88;;;6.70;;
41897;SDS011;27576;53.366;-1.498;2023-02-28T08:25:42;12.35;;;6.20;;
41897;SDS011;27576;53.366;-1.498;2023-02-28T08:28:07;11.38;;;6.63;;
41897;SDS011;27576;53.366;-1.498;2023-02-28T08:30:32;9.00;;;6.80;;
41897;SDS011;27576;53.366;-1.498;2023-02-28T08:32:57;10.43;;;7.93;;
41897;SDS011;27576;53.366;-1.498;2023-02-28T08:35:23;11.73;;;7.88;;
41897;SDS011;27576;53.366;-1.498;2023-02-28T08:37:48;12.20;;;8.15;;
41897;SDS011;27576;53.366;-1.498;2023-02-28T08:40:14;11.18;;;9.15;;
41897;SDS011;27576;53.366;-1.498;2023-02-28T08:42:45;12.43;;;8.27;;
41897;SDS011;27576;53.366;-1.498;2023-02-28T08:45:11;13.25;;;8.88;;
41897;SDS011;27576;53.366;-1.498;2023-02-28T08:47:37;14.38;;;9.38;;
41897;SDS011;27576;53.366;-1.498;2023-02-28T08:50:03;14.35;;;9.13;;
41897;SDS011;27576;53.366;-1.498;2023-02-28T08:52:29;14.95;;;9.07;;
41897;SDS011;27576;53.366;-1.498;2023-02-28T08:54:54;13.38;;;7.97;;
41897;SDS011;27576;53.366;-1.498;2023-02-28T08:57:20;11.18;;;7.45;;
41897;SDS011;27576;53.366;-1.498;2023-02-28T08:59:45;15.40;;;8.10;;
41897;SDS011;27576;53.366;-1.498;2023-02-28T09:02:14;8.85;;;6.80;;
41897;SDS011;27576;53.366;-1.498;2023-02-28T09:04:39;9.52;;;7.30;;
41897;SDS011;27576;53.366;-1.498;2023-02-28T09:07:05;8.57;;;6.53;;
41897;SDS011;27576;53.366;-1.498;2023-02-28T09:09:31;7.28;;;5.45;;
41897;SDS011;27576;53.366;-1.498;2023-02-28T09:11:56;8.88;;;5.47;;
41897;SDS011;27576;53.366;-1.498;2023-02-28T09:14:22;6.93;;;5.45;;
41897;SDS011;27576;53.366;-1.498;2023-02-28T09:16:47;8.68;;;6.05;;
41897;SDS011;27576;53.366;-1.498;2023-02-28T09:19:13;6.25;;;4.53;;
41897;SDS011;27576;53.366;-1.498;2023-02-28T09:21:38;8.48;;;5.30;;
41897;SDS011;27576;53.366;-1.498;2023-02-28T09:24:04;8.45;;;6.07;;
41897;SDS011;27576;53.366;-1.498;2023-02-28T09:26:30;6.78;;;5.20;;
41897;SDS011;27576;53.366;-1.498;2023-02-28T09:28:55;8.15;;;5.55;;
41897;SDS011;27576;53.366;-1.498;2023-02-28T09:31:22;9.65;;;5.28;;
41897;SDS011;27576;53.366;-1.498;2023-02-28T09:33:51;6.13;;;4.65;;
41897;SDS011;27576;53.366;-1.498;2023-02-28T09:36:18;8.82;;;5.70;;
41897;SDS011;27576;53.366;-1.498;2023-02-28T09:38:44;6.13;;;5.00;;
41897;SDS011;27576;53.366;-1.498;2023-02-28T09:41:13;7.38;;;5.30;;
41897;SDS011;27576;53.366;-1.498;2023-02-28T09:43:41;12.50;;;6.75;;
41897;SDS011;27576;53.366;-1.498;2023-02-28T09:48:52;7.70;;;6.18;;
41897;SDS011;27576;53.366;-1.498;2023-02-28T09:53:49;6.80;;;5.80;;
41897;SDS011;27576;53.366;-1.498;2023-02-28T09:56:24;8.15;;;6.50;;
41897;SDS011;27576;53.366;-1.498;2023-02-28T09:58:56;7.35;;;4.97;;
41897;SDS011;27576;53.366;-1.498;2023-02-28T10:01:34;5.00;;;4.22;;
41897;SDS011;27576;53.366;-1.498;2023-02-28T10:04:33;7.55;;;4.60;;
41897;SDS011;27576;53.366;-1.498;2023-02-28T10:07:02;7.97;;;5.03;;
41897;SDS011;27576;53.366;-1.498;2023-02-28T10:09:44;9.35;;;4.88;;
41897;SDS011;27576;53.366;-1.498;2023-02-28T10:12:15;6.97;;;4.35;;
41897;SDS011;27576;53.366;-1.498;2023-02-28T10:14:43;10.52;;;5.40;;
41897;SDS011;27576;53.366;-1.498;2023-02-28T10:17:12;5.78;;;3.67;;
41897;SDS011;27576;53.366;-1.498;2023-02-28T10:24:51;7.35;;;4.65;;
41897;SDS011;27576;53.366;-1.498;2023-02-28T10:27:21;5.88;;;4.75;;
41897;SDS011;27576;53.366;-1.498;2023-02-28T10:29:53;5.00;;;4.50;;
41897;SDS011;27576;53.366;-1.498;2023-02-28T10:32:26;7.60;;;4.45;;
41897;SDS011;27576;53.366;-1.498;2023-02-28T10:35:09;6.22;;;4.03;;
41897;SDS011;27576;53.366;-1.498;2023-02-28T10:37:43;6.85;;;4.10;;
41897;SDS011;27576;53.366;-1.498;2023-02-28T10:45:29;4.55;;;4.05;;
41897;SDS011;27576;53.366;-1.498;2023-02-28T10:58:24;7.63;;;5.50;;
41897;SDS011;27576;53.366;-1.498;2023-02-28T11:00:52;9.15;;;5.35;;
41897;SDS011;27576;53.366;-1.498;2023-02-28T11:03:23;6.70;;;5.22;;
41897;SDS011;27576;53.366;-1.498;2023-02-28T11:05:50;6.45;;;5.20;;
41897;SDS011;27576;53.366;-1.498;2023-02-28T11:08:16;7.57;;;5.97;;
41897;SDS011;27576;53.366;-1.498;2023-02-28T11:10:46;6.55;;;5.25;;
41897;SDS011;27576;53.366;-1.498;2023-02-28T11:13:17;8.30;;;4.80;;
41897;SDS011;27576;53.366;-1.498;2023-02-28T11:15:53;4.35;;;3.72;;
41897;SDS011;27576;53.366;-1.498;2023-02-28T11:18:29;6.60;;;4.25;;
41897;SDS011;27576;53.366;-1.498;2023-02-28T11:21:00;4.45;;;3.20;;
41897;SDS011;27576;53.366;-1.498;2023-02-28T11:23:27;5.32;;;3.45;;
41897;SDS011;27576;53.366;-1.498;2023-02-28T11:25:59;4.15;;;3.70;;
41897;SDS011;27576;53.366;-1.498;2023-02-28T11:28:36;4.50;;;3.28;;
41897;SDS011;27576;53.366;-1.498;2023-02-28T11:36:19;4.32;;;2.75;;
41897;SDS011;27576;53.366;-1.498;2023-02-28T11:38:50;4.68;;;3.10;;
41897;SDS011;27576;53.366;-1.498;2023-02-28T11:44:16;4.70;;;2.80;;
41897;SDS011;27576;53.366;-1.498;2023-02-28T11:52:52;3.92;;;2.72;;
41897;SDS011;27576;53.366;-1.498;2023-02-28T11:55:17;4.68;;;2.85;;
41897;SDS011;27576;53.366;-1.498;2023-02-28T12:04:10;3.10;;;2.60;;
41897;SDS011;27576;53.366;-1.498;2023-02-28T12:26:07;3.50;;;2.80;;
41897;SDS011;27576;53.366;-1.498;2023-02-28T12:28:38;2.33;;;2.13;;
41897;SDS011;27576;53.366;-1.498;2023-02-28T12:31:13;3.65;;;2.63;;
41897;SDS011;27576;53.366;-1.498;2023-02-28T12:33:46;3.67;;;2.65;;
41897;SDS011;27576;53.366;-1.498;2023-02-28T12:36:16;5.03;;;2.70;;
41897;SDS011;27576;53.366;-1.498;2023-02-28T12:39:00;2.80;;;2.33;;
41897;SDS011;27576;53.366;-1.498;2023-02-28T12:41:41;2.83;;;2.33;;
41897;SDS011;27576;53.366;-1.498;2023-02-28T12:44:21;3.53;;;2.42;;
41897;SDS011;27576;53.366;-1.498;2023-02-28T12:46:56;4.00;;;2.60;;
41897;SDS011;27576;53.366;-1.498;2023-02-28T12:49:27;2.05;;;1.83;;
41897;SDS011;27576;53.366;-1.498;2023-02-28T12:51:56;2.33;;;2.13;;
41897;SDS011;27576;53.366;-1.498;2023-02-28T12:57:10;4.65;;;2.30;;
41897;SDS011;27576;53.366;-1.498;2023-02-28T12:59:53;2.85;;;2.35;;
41897;SDS011;27576;53.366;-1.498;2023-02-28T13:08:10;5.03;;;2.38;;
41897;SDS011;27576;53.366;-1.498;2023-02-28T13:10:57;3.83;;;2.30;;
41897;SDS011;27576;53.366;-1.498;2023-02-28T13:13:23;3.88;;;2.80;;
41897;SDS011;27576;53.366;-1.498;2023-02-28T13:16:08;3.75;;;2.38;;
41897;SDS011;27576;53.366;-1.498;2023-02-28T13:18:42;3.22;;;2.33;;
41897;SDS011;27576;53.366;-1.498;2023-02-28T13:21:21;4.70;;;2.50;;
41897;SDS011;27576;53.366;-1.498;2023-02-28T13:23:59;4.05;;;2.65;;
41897;SDS011;27576;53.366;-1.498;2023-02-28T13:32:18;2.45;;;2.05;;
41897;SDS011;27576;53.366;-1.498;2023-02-28T13:34:36;2.83;;;2.17;;
41897;SDS011;27576;53.366;-1.498;2023-02-28T13:39:51;2.60;;;2.40;;
41897;SDS011;27576;53.366;-1.498;2023-02-28T13:47:33;3.50;;;2.40;;
41897;SDS011;27576;53.366;-1.498;2023-02-28T13:53:02;2.50;;;2.30;;
41897;SDS011;27576;53.366;-1.498;2023-02-28T13:55:46;1.83;;;1.70;;
41897;SDS011;27576;53.366;-1.498;2023-02-28T14:06:29;1.80;;;1.70;;
41897;SDS011;27576;53.366;-1.498;2023-02-28T14:11:31;3.33;;;2.00;;
41897;SDS011;27576;53.366;-1.498;2023-02-28T14:13:58;2.95;;;2.25;;
41897;SDS011;27576;53.366;-1.498;2023-02-28T14:16:39;3.53;;;2.80;;
41897;SDS011;27576;53.366;-1.498;2023-02-28T14:21:54;4.28;;;2.88;;
41897;SDS011;27576;53.366;-1.498;2023-02-28T14:24:59;3.72;;;3.25;;
41897;SDS011;27576;53.366;-1.498;2023-02-28T14:36:20;4.35;;;3.20;;
41897;SDS011;27576;53.366;-1.498;2023-02-28T14:38:54;5.43;;;3.80;;
41897;SDS011;27576;53.366;-1.498;2023-02-28T14:41:23;4.68;;;3.95;;
41897;SDS011;27576;53.366;-1.498;2023-02-28T14:43:58;4.07;;;3.67;;
41897;SDS011;27576;53.366;-1.498;2023-02-28T14:46:26;4.28;;;3.88;;
41897;SDS011;27576;53.366;-1.498;2023-02-28T14:48:57;5.28;;;3.72;;
41897;SDS011;27576;53.366;-1.498;2023-02-28T14:51:23;5.90;;;3.95;;
41897;SDS011;27576;53.366;-1.498;2023-02-28T14:53:51;5.28;;;3.60;;
41897;SDS011;27576;53.366;-1.498;2023-02-28T14:56:26;4.90;;;2.65;;
41897;SDS011;27576;53.366;-1.498;2023-02-28T14:58:56;3.30;;;3.00;;
41897;SDS011;27576;53.366;-1.498;2023-02-28T15:01:23;5.75;;;3.10;;
41897;SDS011;27576;53.366;-1.498;2023-02-28T15:04:00;3.78;;;3.25;;
41897;SDS011;27576;53.366;-1.498;2023-02-28T15:06:31;4.38;;;3.25;;
41897;SDS011;27576;53.366;-1.498;2023-02-28T15:09:08;5.63;;;2.97;;
41897;SDS011;27576;53.366;-1.498;2023-02-28T15:11:42;4.93;;;2.80;;
41897;SDS011;27576;53.366;-1.498;2023-02-28T15:14:18;6.82;;;2.50;;
41897;SDS011;27576;53.366;-1.498;2023-02-28T15:16:46;4.57;;;2.22;;
41897;SDS011;27576;53.366;-1.498;2023-02-28T15:19:30;4.00;;;2.50;;
41897;SDS011;27576;53.366;-1.498;2023-02-28T15:22:01;4.18;;;2.20;;
41897;SDS011;27576;53.366;-1.498;2023-02-28T15:24:35;7.10;;;2.50;;
41897;SDS011;27576;53.366;-1.498;2023-02-28T15:27:04;8.48;;;3.25;;
41897;SDS011;27576;53.366;-1.498;2023-02-28T15:29:41;3.72;;;2.70;;
41897;SDS011;27576;53.366;-1.498;2023-02-28T15:32:20;5.97;;;3.15;;
41897;SDS011;27576;53.366;-1.498;2023-02-28T15:34:49;4.07;;;2.80;;
41897;SDS011;27576;53.366;-1.498;2023-02-28T15:37:33;4.68;;;2.60;;
41897;SDS011;27576;53.366;-1.498;2023-02-28T15:40:12;4.60;;;2.50;;
41897;SDS011;27576;53.366;-1.498;2023-02-28T15:42:41;3.83;;;2.60;;
41897;SDS011;27576;53.366;-1.498;2023-02-28T15:48:22;3.30;;;2.38;;
41897;SDS011;27576;53.366;-1.498;2023-02-28T15:50:53;5.13;;;2.28;;
41897;SDS011;27576;53.366;-1.498;2023-02-28T15:53:23;4.60;;;2.33;;
41897;SDS011;27576;53.366;-1.498;2023-02-28T15:55:55;4.97;;;2.30;;
41897;SDS011;27576;53.366;-1.498;2023-02-28T15:58:41;3.83;;;1.70;;
41897;SDS011;27576;53.366;-1.498;2023-02-28T16:01:16;5.13;;;2.10;;
41897;SDS011;27576;53.366;-1.498;2023-02-28T16:03:49;2.90;;;1.80;;
41897;SDS011;27576;53.366;-1.498;2023-02-28T16:08:41;5.03;;;2.45;;
41897;SDS011;27576;53.366;-1.498;2023-02-28T16:11:08;5.78;;;2.90;;
41897;SDS011;27576;53.366;-1.498;2023-02-28T16:13:35;4.65;;;3.15;;
41897;SDS011;27576;53.366;-1.498;2023-02-28T16:16:00;3.58;;;2.30;;
41897;SDS011;27576;53.366;-1.498;2023-02-28T16:18:26;4.80;;;2.58;;
41897;SDS011;27576;53.366;-1.498;2023-02-28T16:20:51;2.85;;;2.50;;
41897;SDS011;27576;53.366;-1.498;2023-02-28T16:23:17;3.97;;;2.55;;
41897;SDS011;27576;53.366;-1.498;2023-02-28T16:25:43;4.60;;;2.50;;
41897;SDS011;27576;53.366;-1.498;2023-02-28T16:28:32;3.17;;;2.88;;
41897;SDS011;27576;53.366;-1.498;2023-02-28T16:31:01;3.22;;;2.80;;
41897;SDS011;27576;53.366;-1.498;2023-02-28T16:33:29;4.03;;;2.60;;
41897;SDS011;27576;53.366;-1.498;2023-02-28T16:35:54;2.90;;;2.60;;
41897;SDS011;27576;53.366;-1.498;2023-02-28T16:38:20;4.22;;;2.40;;
41897;SDS011;27576;53.366;-1.498;2023-02-28T16:40:46;4.07;;;2.40;;
41897;SDS011;27576;53.366;-1.498;2023-02-28T16:43:16;3.38;;;2.58;;
41897;SDS011;27576;53.366;-1.498;2023-02-28T16:45:44;4.47;;;2.95;;
41897;SDS011;27576;53.366;-1.498;2023-02-28T16:48:14;2.53;;;2.28;;
41897;SDS011;27576;53.366;-1.498;2023-02-28T16:50:41;3.00;;;2.70;;
41897;SDS011;27576;53.366;-1.498;2023-02-28T16:53:07;4.18;;;2.70;;
41897;SDS011;27576;53.366;-1.498;2023-02-28T16:55:32;5.63;;;2.90;;
41897;SDS011;27576;53.366;-1.498;2023-02-28T16:58:00;3.42;;;2.60;;
41897;SDS011;27576;53.366;-1.498;2023-02-28T17:00:27;3.58;;;2.63;;
41897;SDS011;27576;53.366;-1.498;2023-02-28T17:02:54;3.38;;;2.92;;
41897;SDS011;27576;53.366;-1.498;2023-02-28T17:05:20;6.97;;;3.40;;
41897;SDS011;27576;53.366;-1.498;2023-02-28T17:07:47;3.47;;;3.17;;
41897;SDS011;27576;53.366;-1.498;2023-02-28T17:10:14;4.30;;;3.85;;
41897;SDS011;27576;53.366;-1.498;2023-02-28T17:12:41;3.83;;;3.50;;
41897;SDS011;27576;53.366;-1.498;2023-02-28T17:15:08;4.75;;;3.22;;
41897;SDS011;27576;53.366;-1.498;2023-02-28T17:17:35;5.72;;;3.50;;
41897;SDS011;27576;53.366;-1.498;2023-02-28T17:20:00;4.70;;;3.40;;